Time;durP1;ratioP1;P1;durP2;ratioP2;P2;SDS_P1;SDS_P2;PMS_P1;PMS_P2;Temp;Humidity;BMP_temperature;BMP_pressure;BME280_temperature;BME280_humidity;BME280_pressure;Samples;Min_cycle;Max_cycle;Signal;HPM_P1;HPM_P2
2023/08/19 00:02:29;;;;;;;8.45;7.47;;;25.90;96.70;;;;;;9664591;23;20483;-91
2023/08/19 00:06:35;;;;;;;9.30;8.35;;;25.90;96.80;;;;;;9663829;23;20192;-90
2023/08/19 00:10:21;;;;;;;8.95;8.15;;;25.90;96.90;;;;;;9664439;23;20241;-91
2023/08/19 00:14:07;;;;;;;8.73;7.82;;;25.80;97.10;;;;;;9664053;23;20161;-91
2023/08/19 00:17:52;;;;;;;8.77;7.88;;;25.70;97.10;;;;;;9662652;23;20197;-91
2023/08/19 00:21:38;;;;;;;9.93;7.88;;;25.70;97.20;;;;;;9664210;23;20157;-91
2023/08/19 00:25:24;;;;;;;9.27;8.02;;;25.70;97.30;;;;;;9663708;22;20213;-90
2023/08/19 00:29:10;;;;;;;8.20;7.40;;;25.60;97.40;;;;;;9663971;23;20161;-90
2023/08/19 00:32:56;;;;;;;9.93;8.90;;;25.60;97.50;;;;;;9664065;23;20164;-90
2023/08/19 00:36:41;;;;;;;9.15;8.15;;;25.50;97.70;;;;;;9663703;23;20228;-91
2023/08/19 00:40:27;;;;;;;10.48;7.63;;;25.50;97.80;;;;;;9663775;23;20559;-90
2023/08/19 00:44:12;;;;;;;9.10;8.20;;;25.50;97.90;;;;;;9663655;22;20157;-91
2023/08/19 00:47:58;;;;;;;8.35;7.47;;;25.40;98.10;;;;;;9663870;23;20165;-91
2023/08/19 00:51:44;;;;;;;9.07;7.80;;;25.40;98.20;;;;;;9663727;23;20153;-91
2023/08/19 00:55:30;;;;;;;10.23;8.00;;;25.30;98.40;;;;;;9663746;22;20187;-91
2023/08/19 00:59:23;;;;;;;9.35;8.38;;;25.30;98.40;;;;;;9663720;23;20165;-91
2023/08/19 01:03:09;;;;;;;8.77;7.60;;;25.30;98.40;;;;;;9663759;23;20150;-91
2023/08/19 01:07:13;;;;;;;10.18;7.45;;;25.20;98.50;;;;;;9663276;23;20242;-90
2023/08/19 01:11:11;;;;;;;8.48;7.55;;;25.20;98.60;;;;;;9663707;23;20149;-91
2023/08/19 01:15:17;;;;;;;8.20;7.50;;;25.20;98.70;;;;;;9663149;22;20177;-91
2023/08/19 01:19:06;;;;;;;10.82;8.02;;;25.10;98.70;;;;;;9663520;23;20163;-91
2023/08/19 01:23:00;;;;;;;8.85;7.43;;;25.10;98.80;;;;;;9663265;23;20604;-90
2023/08/19 01:26:45;;;;;;;8.20;7.40;;;25.00;98.90;;;;;;9662795;23;20196;-91
2023/08/19 01:30:33;;;;;;;8.48;7.50;;;25.00;99.00;;;;;;9661500;23;20164;-91
2023/08/19 01:34:19;;;;;;;10.52;7.80;;;25.00;99.00;;;;;;9661439;22;20153;-91
2023/08/19 01:38:14;;;;;;;8.23;7.53;;;25.00;99.10;;;;;;9661751;23;20173;-90
2023/08/19 01:42:00;;;;;;;8.20;7.47;;;24.90;99.20;;;;;;9661873;23;20160;-91
2023/08/19 01:45:46;;;;;;;8.85;7.75;;;24.80;99.30;;;;;;9662073;22;20210;-89
2023/08/19 01:49:31;;;;;;;9.93;7.82;;;24.80;99.40;;;;;;9687322;23;20145;-90
2023/08/19 01:53:17;;;;;;;9.15;8.15;;;24.80;99.40;;;;;;9661215;23;20185;-90
2023/08/19 01:57:03;;;;;;;8.63;7.47;;;24.80;99.60;;;;;;9660335;23;20181;-91
2023/08/19 02:00:49;;;;;;;10.38;8.05;;;24.70;99.70;;;;;;9660626;23;20504;-90
2023/08/19 02:04:34;;;;;;;11.13;7.70;;;24.70;99.80;;;;;;9660782;22;20216;-90
2023/08/19 02:08:20;;;;;;;8.90;8.00;;;24.60;99.90;;;;;;9661060;23;20268;-90
2023/08/19 02:12:06;;;;;;;9.73;8.32;;;24.60;99.90;;;;;;9660484;23;20162;-90
2023/08/19 02:15:51;;;;;;;8.90;7.93;;;24.60;99.90;;;;;;9687555;22;20272;-91
2023/08/19 02:19:37;;;;;;;8.80;7.90;;;24.60;99.90;;;;;;9660092;23;20161;-90
2023/08/19 02:23:23;;;;;;;8.57;7.78;;;24.50;99.90;;;;;;9661195;23;20266;-89
2023/08/19 02:27:08;;;;;;;10.18;9.05;;;24.50;99.90;;;;;;9659743;23;20196;-90
2023/08/19 02:31:00;;;;;;;9.68;8.05;;;24.50;99.90;;;;;;9660756;23;20165;-90
2023/08/19 02:34:46;;;;;;;8.75;7.80;;;24.50;99.90;;;;;;9660221;22;20181;-90
2023/08/19 02:38:31;;;;;;;12.57;8.38;;;24.40;99.90;;;;;;9660259;23;20173;-91
2023/08/19 02:42:17;;;;;;;8.77;7.82;;;24.40;99.90;;;;;;9660495;23;20158;-91
2023/08/19 02:46:04;;;;;;;9.55;8.45;;;24.30;99.90;;;;;;9660553;23;20537;-91
2023/08/19 02:49:50;;;;;;;9.05;8.15;;;24.30;99.90;;;;;;9661726;23;20180;-90
2023/08/19 02:53:36;;;;;;;9.98;8.45;;;24.30;99.90;;;;;;9663632;23;20157;-91
2023/08/19 02:57:21;;;;;;;9.82;8.80;;;24.20;99.90;;;;;;9663054;23;20264;-92
2023/08/19 03:01:10;;;;;;;9.70;8.40;;;24.20;99.90;;;;;;9663670;23;20164;-91
2023/08/19 03:04:56;;;;;;;9.23;8.32;;;24.20;99.90;;;;;;9662683;22;20273;-91
2023/08/19 03:08:41;;;;;;;10.20;8.48;;;24.10;99.90;;;;;;9663358;23;20157;-91
2023/08/19 03:12:27;;;;;;;9.27;8.38;;;24.10;99.90;;;;;;9663047;23;20184;-90
2023/08/19 03:16:14;;;;;;;9.63;8.68;;;24.10;99.90;;;;;;9663334;23;20605;-90
2023/08/19 03:20:00;;;;;;;10.98;8.25;;;24.00;99.90;;;;;;9662348;23;20184;-90
2023/08/19 03:23:45;;;;;;;10.73;7.72;;;24.00;99.90;;;;;;9691618;23;20181;-90
2023/08/19 03:27:31;;;;;;;14.90;8.23;;;24.00;99.90;;;;;;9662220;23;20552;-90
2023/08/19 03:31:17;;;;;;;9.65;8.55;;;23.90;99.90;;;;;;9662983;23;20467;-91
2023/08/19 03:35:02;;;;;;;9.30;8.38;;;23.90;99.90;;;;;;9662119;22;20181;-90
2023/08/19 03:38:48;;;;;;;10.88;8.32;;;23.90;99.90;;;;;;9662372;23;20624;-90
2023/08/19 03:42:34;;;;;;;9.82;7.90;;;23.80;99.90;;;;;;9662646;23;20546;-91
2023/08/19 03:46:19;;;;;;;10.55;8.13;;;23.80;99.90;;;;;;9662554;23;20200;-92
2023/08/19 03:50:05;;;;;;;10.57;8.70;;;23.80;99.90;;;;;;9661996;23;20192;-91
2023/08/19 03:53:51;;;;;;;10.93;8.43;;;23.80;99.90;;;;;;9662960;23;20184;-90
2023/08/19 03:57:37;;;;;;;9.00;8.07;;;23.70;99.90;;;;;;9662022;23;20205;-90
2023/08/19 04:01:23;;;;;;;10.57;8.38;;;23.70;99.90;;;;;;9688861;23;20153;-91
2023/08/19 04:05:11;;;;;;;9.10;8.05;;;23.70;99.90;;;;;;9662160;22;20197;-90
2023/08/19 04:08:57;;;;;;;9.50;8.30;;;23.70;99.90;;;;;;9662070;23;20225;-90
2023/08/19 04:12:43;;;;;;;8.82;8.00;;;23.60;99.90;;;;;;9689067;23;20141;-92
2023/08/19 04:16:29;;;;;;;8.65;7.82;;;23.60;99.90;;;;;;9661351;23;20674;-91
2023/08/19 04:20:16;;;;;;;8.68;7.72;;;23.60;99.90;;;;;;9688221;23;20523;-90
2023/08/19 04:24:01;;;;;;;9.23;8.15;;;23.50;99.90;;;;;;9661532;23;20153;-90
2023/08/19 04:27:47;;;;;;;9.10;8.20;;;23.50;99.90;;;;;;9660608;23;20193;-89
2023/08/19 04:31:32;;;;;;;9.43;8.43;;;23.50;99.90;;;;;;9662020;23;20157;-90
2023/08/19 04:35:18;;;;;;;8.88;8.07;;;23.50;99.90;;;;;;9661257;22;20177;-90
2023/08/19 04:39:07;;;;;;;12.25;8.05;;;23.50;99.90;;;;;;9661665;23;20157;-90
2023/08/19 04:42:55;;;;;;;11.70;8.27;;;23.50;99.90;;;;;;9662392;23;20165;-91
2023/08/19 04:46:40;;;;;;;10.13;8.15;;;23.40;99.90;;;;;;9660956;23;20319;-90
2023/08/19 04:50:26;;;;;;;9.43;8.43;;;23.40;99.90;;;;;;9661977;23;20213;-90
2023/08/19 04:54:12;;;;;;;9.38;8.48;;;23.40;99.90;;;;;;9661762;22;20236;-91
2023/08/19 04:57:58;;;;;;;9.20;8.30;;;23.40;99.90;;;;;;9661384;23;20585;-91
2023/08/19 05:01:44;;;;;;;8.77;7.97;;;23.30;99.90;;;;;;9661862;23;20549;-90
2023/08/19 05:05:29;;;;;;;9.25;7.90;;;23.20;99.90;;;;;;9661456;22;20505;-91
2023/08/19 05:09:15;;;;;;;8.80;7.72;;;23.30;99.90;;;;;;9687729;23;20152;-90
2023/08/19 05:13:00;;;;;;;8.82;7.68;;;23.30;99.90;;;;;;9661789;23;20158;-91
2023/08/19 05:16:53;;;;;;;8.85;7.95;;;23.30;99.90;;;;;;9661151;23;20182;-91
2023/08/19 05:20:45;;;;;;;9.07;8.05;;;23.20;99.90;;;;;;9661431;23;20160;-91
2023/08/19 05:24:30;;;;;;;8.75;7.85;;;23.20;99.90;;;;;;9661117;22;20178;-90
2023/08/19 05:28:16;;;;;;;10.95;7.75;;;23.20;99.90;;;;;;9660867;23;20161;-91
2023/08/19 05:32:03;;;;;;;10.48;8.38;;;23.20;99.90;;;;;;9661539;23;20164;-91
2023/08/19 05:35:48;;;;;;;9.80;8.82;;;23.20;99.90;;;;;;9660802;22;20200;-90
2023/08/19 05:39:34;;;;;;;9.10;8.18;;;23.20;99.90;;;;;;9660789;23;20161;-90
2023/08/19 05:43:19;;;;;;;10.25;8.30;;;23.20;99.90;;;;;;9661042;23;20157;-90
2023/08/19 05:47:05;;;;;;;9.25;7.93;;;23.20;99.90;;;;;;9660388;23;20199;-89
2023/08/19 05:50:51;;;;;;;9.98;8.65;;;23.20;99.90;;;;;;9687705;23;20157;-90
2023/08/19 05:54:36;;;;;;;8.68;7.82;;;23.20;99.90;;;;;;9688989;22;20173;-91
2023/08/19 05:58:22;;;;;;;8.98;8.10;;;23.20;99.90;;;;;;9660284;23;20609;-90
2023/08/19 06:02:08;;;;;;;9.25;8.32;;;23.20;99.90;;;;;;9659944;23;20168;-91
2023/08/19 06:05:53;;;;;;;9.85;8.63;;;23.20;99.90;;;;;;9659758;22;20581;-90
2023/08/19 06:09:39;;;;;;;12.82;9.13;;;23.20;99.90;;;;;;9660127;23;20158;-90
2023/08/19 06:13:24;;;;;;;15.10;9.82;;;23.20;99.90;;;;;;9659863;23;20157;-90
2023/08/19 06:17:10;;;;;;;10.55;8.90;;;23.20;99.90;;;;;;9660023;23;20185;-90
2023/08/19 06:20:56;;;;;;;11.70;9.88;;;23.20;99.90;;;;;;9661080;23;20165;-90
2023/08/19 06:24:42;;;;;;;11.45;9.90;;;23.20;99.90;;;;;;9661470;22;20719;-91
2023/08/19 06:28:27;;;;;;;10.40;9.30;;;23.30;99.90;;;;;;9663553;23;20535;-89
2023/08/19 06:32:13;;;;;;;11.38;10.10;;;23.30;99.90;;;;;;9663670;23;20617;-90
2023/08/19 06:36:00;;;;;;;13.13;10.50;;;23.50;99.90;;;;;;9662979;23;20189;-90
2023/08/19 06:39:50;;;;;;;10.98;9.82;;;23.70;99.90;;;;;;9663322;23;20211;-90
2023/08/19 06:43:38;;;;;;;12.80;9.80;;;23.90;99.90;;;;;;9664198;23;20196;-90
2023/08/19 06:47:24;;;;;;;11.60;10.13;;;24.20;99.90;;;;;;9662495;23;20178;-90
2023/08/19 06:51:10;;;;;;;12.15;9.80;;;24.60;99.90;;;;;;9663641;23;20233;-91
2023/08/19 06:54:56;;;;;;;13.93;10.25;;;24.80;99.90;;;;;;9663746;22;20227;-91
2023/08/19 06:58:48;;;;;;;11.98;10.02;;;25.00;99.90;;;;;;9663042;23;20157;-91
2023/08/19 07:02:36;;;;;;;11.15;10.05;;;25.20;99.90;;;;;;9663325;23;20145;-92
2023/08/19 07:06:22;;;;;;;11.40;10.20;;;25.40;99.90;;;;;;9668199;23;20189;-92
2023/08/19 07:10:09;;;;;;;10.98;9.90;;;25.60;99.90;;;;;;9665542;23;20149;-93
2023/08/19 07:13:55;;;;;;;11.88;10.10;;;25.70;99.90;;;;;;9665710;23;20154;-93
2023/08/19 07:18:12;;;;;;;11.65;10.45;;;25.90;99.90;;;;;;9665250;23;20645;-92
2023/08/19 07:21:58;;;;;;;11.32;9.88;;;26.10;99.90;;;;;;9665413;23;20149;-93
2023/08/19 07:25:44;;;;;;;10.65;9.65;;;26.20;99.90;;;;;;9665208;22;20182;-93
2023/08/19 07:29:38;;;;;;;13.23;10.02;;;26.40;99.90;;;;;;9664174;23;20160;-93
2023/08/19 07:33:23;;;;;;;12.40;10.20;;;26.50;99.90;;;;;;9664627;23;20146;-92
2023/08/19 07:37:09;;;;;;;10.63;9.63;;;26.70;99.90;;;;;;9664050;23;20192;-92
2023/08/19 07:41:08;;;;;;;14.77;9.75;;;26.90;99.90;;;;;;9663827;23;20185;-92
2023/08/19 07:44:54;;;;;;;13.23;9.40;;;27.00;99.90;;;;;;9663826;22;20177;-92
2023/08/19 07:48:39;;;;;;;15.95;9.98;;;27.20;99.90;;;;;;9663879;23;20616;-93
2023/08/19 07:52:25;;;;;;;19.58;9.50;;;27.30;99.90;;;;;;9664906;23;20149;-93
2023/08/19 07:56:12;;;;;;;11.43;9.40;;;27.50;99.90;;;;;;9664896;23;20181;-93
2023/08/19 07:59:58;;;;;;;14.23;9.70;;;27.50;99.90;;;;;;9664190;23;20149;-93
2023/08/19 08:03:44;;;;;;;11.65;9.40;;;27.60;99.90;;;;;;9664578;23;20189;-93
2023/08/19 08:07:30;;;;;;;12.27;8.75;;;27.70;99.90;;;;;;9670046;23;20177;-92
2023/08/19 08:11:16;;;;;;;11.20;9.20;;;27.80;99.90;;;;;;9666823;23;20503;-92
2023/08/19 08:15:03;;;;;;;9.45;8.45;;;28.00;99.90;;;;;;9667928;22;20178;-93
2023/08/19 08:18:49;;;;;;;13.70;9.95;;;28.10;99.90;;;;;;9665446;23;20460;-92
2023/08/19 08:22:35;;;;;;;12.13;9.15;;;28.30;99.90;;;;;;9664536;23;20197;-93
2023/08/19 08:26:22;;;;;;;9.88;8.45;;;28.40;99.90;;;;;;9665027;23;20185;-92
2023/08/19 08:30:08;;;;;;;9.07;8.18;;;28.50;99.90;;;;;;9664826;23;20240;-93
2023/08/19 08:33:54;;;;;;;11.00;8.88;;;28.50;99.00;;;;;;9664603;23;20157;-93
2023/08/19 08:37:39;;;;;;;10.73;8.05;;;28.60;98.40;;;;;;9665063;23;20193;-93
2023/08/19 08:41:30;;;;;;;8.77;7.88;;;28.70;98.50;;;;;;9664996;23;20244;-92
2023/08/19 08:45:17;;;;;;;7.82;7.13;;;28.70;97.00;;;;;;9664067;22;20223;-93
2023/08/19 08:49:14;;;;;;;9.80;7.90;;;28.70;94.30;;;;;;9663620;23;20188;-90
2023/08/19 08:53:00;;;;;;;9.65;7.15;;;28.60;94.80;;;;;;9663400;23;20141;-91
2023/08/19 08:56:46;;;;;;;10.13;7.07;;;28.60;95.70;;;;;;9663409;23;20184;-91
2023/08/19 09:00:33;;;;;;;9.93;7.85;;;28.60;95.00;;;;;;9663298;23;20679;-91
2023/08/19 09:04:22;;;;;;;9.93;7.75;;;28.60;94.60;;;;;;9663540;22;20168;-91
2023/08/19 09:08:13;;;;;;;9.27;7.80;;;28.70;94.60;;;;;;9663175;23;20648;-92
2023/08/19 09:12:03;;;;;;;9.85;8.20;;;28.80;95.90;;;;;;9663362;23;20142;-91
2023/08/19 09:15:54;;;;;;;8.63;7.78;;;28.90;93.60;;;;;;9663560;22;20178;-92
2023/08/19 09:19:41;;;;;;;10.43;7.47;;;29.00;95.00;;;;;;9663956;23;20764;-90
2023/08/19 09:23:30;;;;;;;12.95;7.38;;;29.00;94.40;;;;;;9663246;23;20168;-91
2023/08/19 09:27:26;;;;;;;12.82;8.02;;;29.20;93.90;;;;;;9663582;23;20192;-91
2023/08/19 09:31:20;;;;;;;9.73;7.82;;;29.30;94.40;;;;;;9664235;23;20156;-92
2023/08/19 09:35:12;;;;;;;8.98;7.22;;;29.40;92.10;;;;;;9663900;22;20522;-91
2023/08/19 09:38:58;;;;;;;8.00;7.20;;;29.50;92.80;;;;;;9664707;23;20164;-92
2023/08/19 09:42:49;;;;;;;10.15;8.15;;;29.60;91.60;;;;;;9663624;23;20240;-92
2023/08/19 09:46:34;;;;;;;7.95;7.15;;;29.60;93.30;;;;;;9663700;23;20189;-92
2023/08/19 09:50:24;;;;;;;8.68;7.85;;;29.70;92.20;;;;;;9662752;23;20161;-90
2023/08/19 09:54:10;;;;;;;7.97;7.25;;;29.80;92.50;;;;;;9662476;23;20153;-90
2023/08/19 09:57:56;;;;;;;8.52;7.05;;;29.80;91.90;;;;;;9663326;23;20181;-91
2023/08/19 10:01:42;;;;;;;9.45;7.07;;;29.90;92.50;;;;;;9666049;23;20173;-90
2023/08/19 10:05:31;;;;;;;7.43;6.72;;;29.90;88.90;;;;;;9665974;22;20181;-91
2023/08/19 10:09:24;;;;;;;7.40;6.68;;;29.90;89.00;;;;;;9665967;23;20165;-90
2023/08/19 10:13:12;;;;;;;8.18;7.20;;;29.90;90.50;;;;;;9666137;23;20199;-91
2023/08/19 10:17:04;;;;;;;7.85;6.90;;;30.00;90.70;;;;;;9665813;23;20246;-90
2023/08/19 10:20:59;;;;;;;10.75;8.77;;;29.90;88.20;;;;;;9665854;23;20149;-90
2023/08/19 10:24:53;;;;;;;8.05;7.25;;;30.10;88.00;;;;;;9666356;22;20212;-91
2023/08/19 10:29:03;;;;;;;10.90;7.65;;;30.20;88.40;;;;;;9665724;23;20141;-91
2023/08/19 10:32:49;;;;;;;8.90;6.97;;;30.30;87.90;;;;;;9665688;23;20189;-91
2023/08/19 10:36:34;;;;;;;9.75;6.70;;;30.30;86.20;;;;;;9665550;23;20197;-91
2023/08/19 10:40:24;;;;;;;7.82;6.90;;;30.40;87.40;;;;;;9665802;23;20157;-91
2023/08/19 10:44:13;;;;;;;7.43;6.68;;;30.50;86.70;;;;;;9667405;23;20188;-90
2023/08/19 10:47:59;;;;;;;7.80;7.00;;;30.60;87.10;;;;;;9666959;23;20181;-93
2023/08/19 10:52:00;;;;;;;7.93;6.85;;;30.70;84.90;;;;;;9666268;23;20597;-93
2023/08/19 10:55:55;;;;;;;7.38;6.68;;;30.70;85.70;;;;;;9665503;22;20177;-92
2023/08/19 10:59:43;;;;;;;8.48;7.25;;;30.80;85.90;;;;;;9666073;23;20534;-91
2023/08/19 11:03:29;;;;;;;8.32;7.20;;;30.90;84.90;;;;;;9665385;23;20218;-92
2023/08/19 11:07:33;;;;;;;8.45;7.03;;;31.00;87.00;;;;;;9665385;23;20181;-92
2023/08/19 11:11:25;;;;;;;9.40;6.53;;;31.00;83.20;;;;;;9665687;23;20149;-92
2023/08/19 11:15:10;;;;;;;7.82;7.03;;;31.20;84.50;;;;;;9666361;22;20254;-92
2023/08/19 11:18:57;;;;;;;7.72;6.82;;;31.20;88.40;;;;;;9664668;23;20219;-92
2023/08/19 11:22:48;;;;;;;7.93;7.05;;;31.30;86.00;;;;;;9665719;23;20164;-92
2023/08/19 11:26:35;;;;;;;8.48;6.68;;;31.40;85.00;;;;;;9664034;23;20188;-92
2023/08/19 11:30:21;;;;;;;8.48;6.72;;;31.40;84.80;;;;;;9664554;23;20236;-92
2023/08/19 11:34:11;;;;;;;8.13;7.18;;;31.60;81.80;;;;;;9665257;23;20164;-91
2023/08/19 11:37:57;;;;;;;8.57;7.00;;;31.60;84.60;;;;;;9663590;23;20216;-92
2023/08/19 11:41:45;;;;;;;7.78;7.07;;;31.60;78.80;;;;;;9663994;23;20154;-92
2023/08/19 11:45:38;;;;;;;7.45;6.68;;;31.50;78.70;;;;;;9664211;22;20181;-91
2023/08/19 11:49:29;;;;;;;8.40;7.25;;;31.40;80.50;;;;;;9664512;23;20233;-91
2023/08/19 11:53:25;;;;;;;7.55;6.85;;;31.40;79.30;;;;;;9663916;23;20141;-92
2023/08/19 11:57:15;;;;;;;6.82;6.03;;;31.40;78.30;;;;;;9663759;23;20181;-92
2023/08/19 12:01:01;;;;;;;6.93;6.22;;;31.50;78.80;;;;;;9663950;23;20162;-94
2023/08/19 12:04:46;;;;;;;7.80;6.72;;;31.60;81.90;;;;;;9663809;22;20231;-92
2023/08/19 12:08:48;;;;;;;9.48;7.07;;;31.70;82.60;;;;;;9664538;23;20161;-92
2023/08/19 12:12:33;;;;;;;7.13;6.43;;;31.60;78.70;;;;;;9664003;23;20145;-93
2023/08/19 12:16:19;;;;;;;9.02;6.97;;;31.70;82.00;;;;;;9663981;23;20554;-92
2023/08/19 12:20:13;;;;;;;7.65;6.95;;;31.70;79.70;;;;;;9663093;23;20157;-92
2023/08/19 12:23:59;;;;;;;9.45;7.00;;;31.70;78.30;;;;;;9663908;23;20169;-91
2023/08/19 12:27:45;;;;;;;8.10;7.30;;;31.60;78.00;;;;;;9663772;23;20188;-92
2023/08/19 12:31:30;;;;;;;8.32;7.05;;;31.60;77.90;;;;;;9663462;23;20154;-92
2023/08/19 12:35:42;;;;;;;8.65;7.63;;;31.70;81.40;;;;;;9663598;22;20183;-92
2023/08/19 12:39:27;;;;;;;9.65;7.10;;;31.80;80.00;;;;;;9663486;23;20161;-92
2023/08/19 12:43:15;;;;;;;7.60;6.90;;;31.80;81.10;;;;;;9663151;23;20169;-92
2023/08/19 12:47:00;;;;;;;7.50;6.80;;;31.70;78.20;;;;;;9662942;23;20185;-91
2023/08/19 12:50:46;;;;;;;10.82;7.03;;;31.80;80.30;;;;;;9689945;23;20176;-92
2023/08/19 12:54:35;;;;;;;7.43;6.53;;;31.80;80.50;;;;;;9663048;22;20184;-92
2023/08/19 12:58:21;;;;;;;8.20;6.75;;;31.90;81.50;;;;;;9663697;23;20199;-92
2023/08/19 13:02:07;;;;;;;9.68;6.93;;;31.90;81.40;;;;;;9662974;23;20181;-92
2023/08/19 13:05:52;;;;;;;7.93;7.00;;;31.80;76.00;;;;;;9663193;22;20185;-92
2023/08/19 13:09:38;;;;;;;7.80;6.80;;;31.80;77.20;;;;;;9662996;23;20165;-92
2023/08/19 13:13:24;;;;;;;7.10;6.40;;;31.90;78.50;;;;;;9663097;23;20157;-92
2023/08/19 13:17:09;;;;;;;10.65;6.63;;;32.00;76.20;;;;;;9662617;23;20784;-92
2023/08/19 13:20:55;;;;;;;11.60;7.40;;;32.10;75.40;;;;;;9663577;23;20161;-92
2023/08/19 13:24:41;;;;;;;8.07;6.53;;;32.20;75.60;;;;;;9662402;22;20180;-92
2023/08/19 13:28:28;;;;;;;10.73;7.00;;;32.20;76.40;;;;;;9663080;23;20158;-92
2023/08/19 13:32:13;;;;;;;7.75;6.95;;;32.30;77.50;;;;;;9661817;23;20184;-92
2023/08/19 13:35:59;;;;;;;8.50;7.60;;;32.30;78.70;;;;;;9661900;23;20197;-92
2023/08/19 13:39:56;;;;;;;8.27;7.50;;;32.30;78.40;;;;;;9662319;23;20149;-92
2023/08/19 13:43:42;;;;;;;8.90;8.13;;;32.30;79.30;;;;;;9662230;23;20145;-93
2023/08/19 13:47:28;;;;;;;8.57;7.70;;;32.20;79.90;;;;;;9662615;23;20191;-92
2023/08/19 13:51:17;;;;;;;8.00;7.30;;;32.20;80.00;;;;;;9663494;23;20153;-92
2023/08/19 13:55:03;;;;;;;9.07;7.40;;;32.20;78.60;;;;;;9662265;22;20181;-92
2023/08/19 13:58:49;;;;;;;8.45;7.63;;;32.20;79.90;;;;;;9662519;23;20633;-93
2023/08/19 14:02:34;;;;;;;8.13;7.43;;;32.20;79.80;;;;;;9662425;23;20756;-93
2023/08/19 14:06:20;;;;;;;8.98;8.13;;;32.20;79.70;;;;;;9662466;23;20640;-92
2023/08/19 14:10:06;;;;;;;9.50;8.60;;;32.10;79.60;;;;;;9662482;23;20520;-92
2023/08/19 14:13:52;;;;;;;8.90;8.00;;;32.20;78.40;;;;;;9663434;23;20154;-91
2023/08/19 14:17:37;;;;;;;10.85;7.60;;;32.00;78.70;;;;;;9662139;23;20207;-91
2023/08/19 14:21:24;;;;;;;8.85;7.47;;;32.10;80.30;;;;;;9662925;23;20169;-92
2023/08/19 14:25:10;;;;;;;8.48;7.57;;;32.20;81.50;;;;;;9663294;22;20715;-92
2023/08/19 14:28:55;;;;;;;8.18;7.38;;;32.30;78.30;;;;;;9663741;23;20641;-92
2023/08/19 14:32:41;;;;;;;11.95;8.00;;;32.30;77.90;;;;;;9662220;23;20617;-92
2023/08/19 14:36:27;;;;;;;8.98;7.40;;;32.30;74.40;;;;;;9662542;23;20196;-92
2023/08/19 14:40:13;;;;;;;7.93;7.22;;;32.40;77.10;;;;;;9662122;23;20678;-93
2023/08/19 14:43:58;;;;;;;8.40;7.32;;;32.40;75.40;;;;;;9662637;23;20157;-93
2023/08/19 14:47:44;;;;;;;10.40;7.80;;;32.50;74.10;;;;;;9664667;23;20188;-93
2023/08/19 14:51:29;;;;;;;8.60;6.88;;;32.50;76.40;;;;;;9664922;23;20154;-92
2023/08/19 14:55:21;;;;;;;7.43;6.72;;;32.50;74.80;;;;;;9664891;22;20184;-93
2023/08/19 14:59:07;;;;;;;9.13;7.43;;;32.60;75.90;;;;;;9665298;23;20206;-92
2023/08/19 15:02:53;;;;;;;11.05;7.22;;;32.60;73.40;;;;;;9665044;23;20164;-93
2023/08/19 15:06:39;;;;;;;8.73;6.80;;;32.70;74.60;;;;;;9664423;23;20181;-92
2023/08/19 15:10:25;;;;;;;7.75;7.03;;;32.70;75.80;;;;;;9665945;23;20605;-93
2023/08/19 15:14:11;;;;;;;7.57;6.85;;;32.70;74.90;;;;;;9664898;23;20163;-92
2023/08/19 15:17:59;;;;;;;8.43;7.63;;;32.70;73.10;;;;;;9664360;23;20173;-93
2023/08/19 15:21:53;;;;;;;9.45;6.88;;;32.70;72.40;;;;;;9664829;23;20164;-92
2023/08/19 15:25:39;;;;;;;7.55;6.65;;;32.70;75.30;;;;;;9664478;22;20213;-92
2023/08/19 15:29:24;;;;;;;7.40;6.72;;;32.70;73.50;;;;;;9664887;23;20761;-93
2023/08/19 15:33:10;;;;;;;7.15;6.43;;;32.70;72.50;;;;;;9664579;23;20153;-92
2023/08/19 15:36:56;;;;;;;7.88;6.18;;;32.70;72.90;;;;;;9664012;23;20193;-93
2023/08/19 15:40:41;;;;;;;7.38;6.60;;;32.70;72.10;;;;;;9664258;23;20184;-92
2023/08/19 15:44:27;;;;;;;13.40;7.40;;;32.70;71.00;;;;;;9663197;22;20223;-92
2023/08/19 15:48:13;;;;;;;6.90;6.30;;;32.70;70.60;;;;;;9690624;23;20181;-92
2023/08/19 15:51:58;;;;;;;8.27;6.45;;;32.70;70.70;;;;;;9663846;23;20153;-91
2023/08/19 15:55:44;;;;;;;8.18;6.63;;;32.70;70.70;;;;;;9663456;22;20181;-93
2023/08/19 15:59:30;;;;;;;11.15;6.53;;;32.70;70.40;;;;;;9663576;23;20161;-93
2023/08/19 16:03:15;;;;;;;6.72;6.13;;;32.70;71.00;;;;;;9664716;23;20196;-91
2023/08/19 16:07:04;;;;;;;7.97;6.07;;;32.80;72.90;;;;;;9663482;23;20188;-93
2023/08/19 16:10:59;;;;;;;7.28;6.32;;;32.80;72.00;;;;;;9664076;23;20157;-92
2023/08/19 16:14:45;;;;;;;6.97;6.38;;;32.90;72.00;;;;;;9663646;22;20176;-92
2023/08/19 16:18:33;;;;;;;7.43;6.63;;;32.90;73.80;;;;;;9664074;23;20593;-94
2023/08/19 16:22:19;;;;;;;7.35;6.65;;;32.90;74.90;;;;;;9664149;23;20153;-92
2023/08/19 16:26:05;;;;;;;8.02;7.22;;;33.00;75.30;;;;;;9663121;23;20656;-92
2023/08/19 16:29:51;;;;;;;6.97;6.38;;;33.00;75.30;;;;;;9663318;23;20187;-91
2023/08/19 16:33:37;;;;;;;7.03;6.43;;;33.00;75.40;;;;;;9663230;23;20153;-92
2023/08/19 16:37:22;;;;;;;7.18;6.53;;;33.00;75.50;;;;;;9662960;23;20193;-92
2023/08/19 16:41:09;;;;;;;6.65;5.95;;;33.10;76.20;;;;;;9662827;23;20158;-92
2023/08/19 16:44:54;;;;;;;6.32;5.82;;;33.10;76.50;;;;;;9663398;22;20207;-92
2023/08/19 16:48:40;;;;;;;7.05;6.45;;;33.10;77.00;;;;;;9663227;23;20157;-91
2023/08/19 16:52:27;;;;;;;7.18;6.57;;;33.10;77.10;;;;;;9663765;23;20153;-91
2023/08/19 16:56:17;;;;;;;7.90;7.20;;;33.10;77.20;;;;;;9663573;23;20200;-93
2023/08/19 17:00:07;;;;;;;7.55;6.88;;;33.10;77.10;;;;;;9664130;23;20153;-92
2023/08/19 17:03:53;;;;;;;7.55;6.95;;;33.10;77.20;;;;;;9662878;23;20633;-92
2023/08/19 17:07:41;;;;;;;7.53;6.82;;;33.10;77.50;;;;;;9662838;23;20185;-93
2023/08/19 17:11:35;;;;;;;8.27;7.57;;;33.00;77.50;;;;;;9663615;23;20153;-93
2023/08/19 17:15:21;;;;;;;9.73;8.73;;;33.00;77.80;;;;;;9663511;22;20796;-93
2023/08/19 17:19:07;;;;;;;8.27;7.47;;;33.00;78.30;;;;;;9662954;23;20167;-92
2023/08/19 17:22:53;;;;;;;9.45;7.20;;;33.00;78.70;;;;;;9663067;23;20165;-92
2023/08/19 17:26:39;;;;;;;12.98;7.80;;;32.90;79.40;;;;;;9662379;23;20189;-92
2023/08/19 17:30:25;;;;;;;9.63;7.75;;;32.80;80.20;;;;;;9662818;23;20589;-92
2023/08/19 17:34:18;;;;;;;9.57;7.82;;;32.80;80.70;;;;;;9662548;23;20188;-92
2023/08/19 17:38:04;;;;;;;11.40;7.63;;;32.80;81.20;;;;;;9662440;23;20176;-94
2023/08/19 17:41:50;;;;;;;8.55;7.20;;;32.70;82.10;;;;;;9662463;23;20531;-92
2023/08/19 17:45:36;;;;;;;8.80;7.07;;;32.60;82.90;;;;;;9662462;22;20216;-93
2023/08/19 17:49:21;;;;;;;8.50;7.63;;;32.60;83.30;;;;;;9662912;23;20160;-91
2023/08/19 17:53:07;;;;;;;8.45;6.82;;;32.50;83.60;;;;;;9662930;23;20161;-92
2023/08/19 17:56:52;;;;;;;7.22;6.43;;;32.50;83.70;;;;;;9662920;23;20177;-91
2023/08/19 18:00:40;;;;;;;12.30;7.07;;;32.40;83.80;;;;;;9662583;23;20168;-92
2023/08/19 18:04:26;;;;;;;8.90;6.70;;;32.30;83.70;;;;;;9663423;22;20164;-92
2023/08/19 18:08:12;;;;;;;7.15;6.47;;;32.30;84.10;;;;;;9662518;23;20177;-91
2023/08/19 18:11:57;;;;;;;7.72;7.03;;;32.20;84.40;;;;;;9662194;23;20700;-92
2023/08/19 18:15:46;;;;;;;7.70;6.95;;;32.10;84.40;;;;;;9662266;22;20547;-92
2023/08/19 18:19:35;;;;;;;8.55;7.25;;;32.00;84.40;;;;;;9663484;23;20167;-92
2023/08/19 18:23:20;;;;;;;7.63;6.93;;;32.00;84.30;;;;;;9665735;23;20168;-93
2023/08/19 18:27:12;;;;;;;10.63;7.55;;;31.90;84.20;;;;;;9665392;23;20208;-91
2023/08/19 18:30:57;;;;;;;7.68;6.97;;;31.80;84.50;;;;;;9665137;23;20173;-92
2023/08/19 18:34:43;;;;;;;8.45;7.43;;;31.70;84.40;;;;;;9665662;22;20184;-91
2023/08/19 18:38:29;;;;;;;8.55;7.65;;;31.70;84.50;;;;;;9664916;23;20250;-92
2023/08/19 18:42:14;;;;;;;8.60;7.80;;;31.60;84.90;;;;;;9665019;23;20788;-91
2023/08/19 18:46:01;;;;;;;8.52;7.60;;;31.60;84.90;;;;;;9664901;23;20181;-91
2023/08/19 18:49:48;;;;;;;9.00;8.05;;;31.50;85.10;;;;;;9664330;23;20157;-91
2023/08/19 18:53:34;;;;;;;10.68;8.02;;;31.40;85.10;;;;;;9664317;23;20157;-92
2023/08/19 18:57:19;;;;;;;8.65;7.57;;;31.40;85.70;;;;;;9664552;23;20184;-91
2023/08/19 19:01:06;;;;;;;8.35;7.65;;;31.40;86.00;;;;;;9665002;23;20153;-93
2023/08/19 19:04:51;;;;;;;9.30;7.90;;;31.30;86.00;;;;;;9664837;22;20252;-92
2023/08/19 19:08:37;;;;;;;9.63;7.57;;;31.30;86.00;;;;;;9663856;23;20161;-92
2023/08/19 19:12:22;;;;;;;9.82;8.18;;;31.20;86.00;;;;;;9665489;23;20219;-93
2023/08/19 19:16:16;;;;;;;10.25;7.70;;;31.10;85.80;;;;;;9664096;23;20196;-93
2023/08/19 19:20:03;;;;;;;8.60;7.80;;;31.10;86.20;;;;;;9664372;23;20624;-93
2023/08/19 19:23:50;;;;;;;10.52;8.02;;;31.00;86.50;;;;;;9664070;23;20164;-92
2023/08/19 19:27:39;;;;;;;9.05;8.25;;;31.00;86.60;;;;;;9663251;23;20637;-92
2023/08/19 19:31:25;;;;;;;13.27;7.93;;;30.90;86.50;;;;;;9663555;23;20145;-92
2023/08/19 19:35:14;;;;;;;9.25;8.32;;;30.90;87.00;;;;;;9663591;22;20699;-93
2023/08/19 19:39:00;;;;;;;12.77;8.30;;;30.80;87.00;;;;;;9663807;23;20200;-92